createdAt,value
2022-10-15T00:02:26.364Z,103246.66
2022-10-15T00:07:29.766Z,103342.06
2022-10-15T00:12:32.369Z,103329.25
2022-10-15T00:17:37.363Z,103340.22
2022-10-15T00:22:40.242Z,103315.34
2022-10-15T00:27:42.791Z,103200.91
2022-10-15T00:32:46.705Z,103174.31
2022-10-15T00:37:49.267Z,103166.16
2022-10-15T00:42:51.851Z,103027.69
2022-10-15T00:47:55.828Z,102991.31
2022-10-15T00:53:01.517Z,102978.69
2022-10-15T00:58:09.220Z,103127.75
2022-10-15T01:03:13.345Z,103284.16
2022-10-15T01:08:15.988Z,103324.53
2022-10-15T01:13:25.323Z,103298.41
2022-10-15T01:18:33.707Z,103519.53
2022-10-15T01:24:01.629Z,103525.91
2022-10-15T01:29:12.099Z,103484.06
2022-10-15T01:39:33.316Z,103576.16
2022-10-15T01:44:39.711Z,103565.97
2022-10-15T01:50:05.755Z,103440.84
2022-10-15T01:55:11.724Z,103343.22
2022-10-15T02:00:15.010Z,103126.22
2022-10-15T02:05:22.958Z,102921.50
2022-10-15T02:10:30.721Z,103551.50
2022-10-15T02:15:37.572Z,103434.16
2022-10-15T02:20:46.608Z,103476.34
2022-10-15T02:25:52.490Z,103497.09
2022-10-15T02:30:56.043Z,105126.19
2022-10-15T02:36:01.340Z,101826.34
2022-10-15T02:41:06.371Z,101683.75
2022-10-15T02:46:10.267Z,101611.06
2022-10-15T02:51:14.667Z,101555.31
2022-10-15T02:56:17.431Z,101518.63
2022-10-15T03:01:20.170Z,101524.00
2022-10-15T03:06:24.891Z,101498.78
2022-10-15T03:11:27.625Z,101522.72
2022-10-15T03:16:30.502Z,101610.38
2022-10-15T03:21:34.831Z,101547.63
2022-10-15T03:26:44.431Z,101504.59
2022-10-15T03:31:47.188Z,104901.47
2022-10-15T03:36:52.442Z,104690.34
2022-10-15T03:41:55.263Z,104625.22
2022-10-15T03:47:05.410Z,104588.28
2022-10-15T03:52:18.599Z,104438.00
2022-10-15T03:57:22.841Z,104246.84
2022-10-15T04:02:34.619Z,104179.72
2022-10-15T04:07:38.690Z,104118.66
2022-10-15T04:12:46.730Z,104173.50
2022-10-15T04:17:55.086Z,104132.47
2022-10-15T04:23:00.575Z,104123.81
2022-10-15T04:28:04.028Z,104078.78
2022-10-15T04:33:08.646Z,104056.69
2022-10-15T04:38:12.558Z,103950.09
2022-10-15T04:43:34.034Z,102571.81
2022-10-15T04:48:43.184Z,102387.44
2022-10-15T04:53:49.591Z,102277.06
2022-10-15T04:58:52.598Z,102245.88
2022-10-15T05:03:56.525Z,102205.44
2022-10-15T05:09:02.009Z,102140.28
2022-10-15T05:14:07.564Z,102123.56
2022-10-15T05:19:12.455Z,102090.38
2022-10-15T05:24:18.411Z,102035.13
2022-10-15T05:29:30.056Z,102071.38
2022-10-15T05:34:33.597Z,102110.97
2022-10-15T05:39:45.329Z,102163.75
2022-10-15T05:44:48.059Z,102225.72
2022-10-15T05:49:50.731Z,102221.53
2022-10-15T05:55:03.014Z,102223.63
2022-10-15T06:00:06.649Z,102215.34
2022-10-15T06:05:14.680Z,102233.47
2022-10-15T06:10:19.326Z,102194.41
2022-10-15T06:15:21.900Z,102298.91
2022-10-15T06:20:24.572Z,102361.88
2022-10-15T06:25:28.980Z,102440.13
2022-10-15T06:30:31.731Z,102425.94
2022-10-15T06:35:35.663Z,102419.94
2022-10-15T06:40:39.647Z,102424.84
2022-10-15T06:45:42.941Z,102685.84
2022-10-15T06:50:52.497Z,102673.53
2022-10-15T06:55:58.947Z,102742.47
2022-10-15T07:01:01.795Z,102965.19
2022-10-15T07:06:05.466Z,103259.31
2022-10-15T07:11:10.106Z,103285.81
2022-10-15T07:16:13.485Z,103401.97
2022-10-15T07:21:16.021Z,103635.56
2022-10-15T07:26:19.938Z,103876.53
2022-10-15T07:31:22.602Z,104506.09
2022-10-15T07:36:27.386Z,105248.78
2022-10-15T07:41:31.483Z,105851.16
2022-10-15T07:46:34.066Z,106404.06
2022-10-15T07:51:36.974Z,107254.19
2022-10-15T07:56:40.879Z,108270.91
2022-10-15T08:01:45.910Z,109261.75
2022-10-15T08:06:51.099Z,110458.16
2022-10-15T08:11:55.539Z,111856.75
2022-10-15T08:16:58.078Z,113143.13
2022-10-15T08:22:01.106Z,114149.63
2022-10-15T08:27:05.005Z,115126.16
2022-10-15T08:32:07.617Z,116511.03
2022-10-15T08:37:10.265Z,117522.00
2022-10-15T08:42:19.493Z,118440.28
2022-10-15T08:47:30.569Z,119383.00
2022-10-15T08:52:41.704Z,120560.56
2022-10-15T08:57:50.058Z,121561.44
2022-10-15T09:02:59.239Z,122335.56
2022-10-15T09:08:06.145Z,123236.16
2022-10-15T09:13:16.248Z,123885.69
2022-10-15T09:18:22.986Z,124437.88
2022-10-15T09:23:29.751Z,124968.47
2022-10-15T09:28:41.980Z,125150.88
2022-10-15T09:33:47.657Z,125409.06
2022-10-15T09:38:57.788Z,125647.53
2022-10-15T09:44:04.565Z,125148.06
2022-10-15T09:49:18.976Z,124482.56
2022-10-15T09:54:30.462Z,123243.94
2022-10-15T09:59:34.385Z,120496.63
2022-10-15T10:04:38.669Z,116275.59
2022-10-15T10:09:51.006Z,107951.69
2022-10-15T10:14:57.667Z,100308.72
2022-10-15T10:20:26.282Z,98825.88
2022-10-15T10:25:35.908Z,98428.53
2022-10-15T10:30:47.858Z,98286.53
2022-10-15T10:35:51.347Z,98149.63
2022-10-15T10:40:55.315Z,98063.91
2022-10-15T10:46:00.586Z,98105.13
2022-10-15T10:51:11.956Z,94917.06
2022-10-15T10:56:19.346Z,94841.94
2022-10-15T11:01:23.331Z,94830.91
2022-10-15T11:06:41.472Z,95025.19
2022-10-15T11:11:51.113Z,95190.69
2022-10-15T11:17:01.513Z,95406.13
2022-10-15T11:22:25.206Z,95520.19
2022-10-15T11:27:41.273Z,96069.38
2022-10-15T11:33:09.192Z,96025.88
2022-10-15T11:38:20.652Z,96110.19
2022-10-15T11:43:33.158Z,95716.50
2022-10-15T11:48:45.205Z,95537.88
2022-10-15T11:54:09.422Z,95434.06
2022-10-15T11:59:20.423Z,95314.53
2022-10-15T12:04:32.646Z,95191.09
2022-10-15T12:09:38.999Z,94988.84
2022-10-15T12:14:44.755Z,94862.63
2022-10-15T12:19:52.000Z,94397.97
2022-10-15T12:24:56.240Z,94401.72
2022-10-15T12:30:21.951Z,94376.44
2022-10-15T12:35:37.632Z,94370.19
2022-10-15T12:40:41.062Z,94430.47
2022-10-15T12:45:51.196Z,94410.25
2022-10-15T12:51:30.019Z,94464.91
2022-10-15T12:56:40.003Z,94490.16
2022-10-15T13:01:52.858Z,94521.13
2022-10-15T13:07:03.894Z,94503.94
2022-10-15T13:12:06.497Z,94518.59
2022-10-15T13:17:16.103Z,94487.34
2022-10-15T13:22:25.333Z,94507.78
2022-10-15T13:27:31.904Z,94506.91
2022-10-15T13:32:37.919Z,94510.53
2022-10-15T13:37:42.279Z,94515.38
2022-10-15T13:42:59.089Z,94519.88
2022-10-15T13:48:01.693Z,94516.34
2022-10-15T13:53:13.437Z,94495.19
2022-10-15T13:58:22.256Z,94447.50
2022-10-15T14:03:28.491Z,94432.50
2022-10-15T14:08:37.369Z,94416.75
2022-10-15T14:13:44.986Z,94402.59
2022-10-15T14:18:49.449Z,94402.09
2022-10-15T14:23:53.490Z,94393.84
2022-10-15T14:28:57.229Z,94401.97
2022-10-15T14:33:59.882Z,94402.94
2022-10-15T14:39:34.777Z,94392.75
2022-10-15T14:44:47.568Z,94385.25
2022-10-15T14:49:51.562Z,94371.94
2022-10-15T14:55:02.496Z,94372.91
2022-10-15T15:00:14.885Z,94384.31
2022-10-15T15:05:23.692Z,94383.47
2022-10-15T15:10:27.437Z,94393.53
2022-10-15T15:15:31.443Z,94381.06
2022-10-15T15:20:34.051Z,94390.41
2022-10-15T15:25:37.915Z,94398.38
2022-10-15T15:30:45.114Z,94418.53
2022-10-15T15:35:50.893Z,94421.19
2022-10-15T15:40:53.581Z,94428.41
2022-10-15T15:45:57.476Z,94330.81
2022-10-15T15:51:03.391Z,94356.38
2022-10-15T15:56:06.351Z,94377.06
2022-10-15T16:01:10.399Z,94389.59
2022-10-15T16:06:13.728Z,94383.22
2022-10-15T16:11:16.419Z,94415.78
2022-10-15T16:16:20.378Z,94427.50
2022-10-15T16:21:23.474Z,94449.78
2022-10-15T16:26:26.527Z,94470.22
2022-10-15T16:31:32.283Z,94481.69
2022-10-15T16:36:35.864Z,94514.94
2022-10-15T16:41:38.780Z,94562.97
2022-10-15T16:46:42.711Z,94648.81
2022-10-15T16:51:45.295Z,94706.81
2022-10-15T16:56:50.553Z,94806.00
2022-10-15T17:01:56.764Z,94928.06
2022-10-15T17:06:59.355Z,95112.19
2022-10-15T17:12:01.943Z,95286.63
2022-10-15T17:17:07.583Z,95449.94
2022-10-15T17:22:10.183Z,95631.69
2022-10-15T17:27:12.737Z,95908.28
2022-10-15T17:32:16.623Z,96167.16
2022-10-15T17:37:19.270Z,96303.94
2022-10-15T17:42:22.681Z,96377.41
2022-10-15T17:47:27.210Z,96479.63
2022-10-15T17:52:30.622Z,96545.38
2022-10-15T17:57:33.182Z,96602.47
2022-10-15T18:02:37.119Z,96633.38
2022-10-15T18:07:39.716Z,96702.91
2022-10-15T18:12:42.304Z,96654.16
2022-10-15T18:17:46.250Z,96634.91
2022-10-15T18:22:48.825Z,96547.03
2022-10-15T18:27:51.374Z,96459.31
2022-10-15T18:32:57.344Z,96431.41
2022-10-15T18:38:01.421Z,96435.16
2022-10-15T18:43:04.750Z,96454.91
2022-10-15T18:48:08.681Z,96474.44
2022-10-15T18:53:11.463Z,96545.63
2022-10-15T18:58:14.015Z,96561.13
2022-10-15T19:03:17.915Z,96580.53
2022-10-15T19:08:21.447Z,96604.69
2022-10-15T19:13:24.092Z,96627.94
2022-10-15T19:18:27.997Z,96631.53
2022-10-15T19:23:30.568Z,96660.06
2022-10-15T19:28:33.370Z,96675.38
2022-10-15T19:33:38.493Z,96694.31
2022-10-15T19:38:41.022Z,96735.38
2022-10-15T19:43:44.139Z,96800.78
2022-10-15T19:48:48.040Z,96828.03
2022-10-15T19:53:51.883Z,96893.88
2022-10-15T19:58:55.706Z,96923.06
2022-10-15T20:04:03.363Z,96968.50
2022-10-15T20:09:09.043Z,96991.63
2022-10-15T20:14:11.825Z,97030.78
2022-10-15T20:19:15.733Z,97027.31
2022-10-15T20:24:18.287Z,97040.66
2022-10-15T20:29:20.873Z,97044.22
2022-10-15T20:34:24.775Z,97035.44
2022-10-15T20:39:27.524Z,97065.69
2022-10-15T20:44:30.307Z,97057.66
2022-10-15T20:49:37.737Z,97073.97
2022-10-15T20:54:40.449Z,97106.03
2022-10-15T20:59:43.000Z,97100.53
2022-10-15T21:04:48.216Z,97136.09
2022-10-15T21:09:50.799Z,97137.78
2022-10-15T21:14:53.361Z,97135.06
2022-10-15T21:19:57.282Z,97143.03
2022-10-15T21:24:59.886Z,97196.59
2022-10-15T21:30:02.491Z,97194.81
2022-10-15T21:35:07.451Z,97219.59
2022-10-15T21:40:11.491Z,97237.34
2022-10-15T21:45:14.026Z,97247.13
2022-10-15T21:50:17.973Z,97254.25
2022-10-15T21:55:20.529Z,97262.19
2022-10-15T22:00:23.614Z,97266.59
2022-10-15T22:05:27.538Z,97277.28
2022-10-15T22:10:30.963Z,97290.56
2022-10-15T22:15:33.754Z,97322.38
2022-10-15T22:20:37.693Z,97316.28
2022-10-15T22:25:41.245Z,97332.22
2022-10-15T22:30:43.801Z,97337.50
2022-10-15T22:35:47.811Z,97346.44
2022-10-15T22:40:54.435Z,97349.91
2022-10-15T22:46:00.277Z,97363.34
2022-10-15T22:51:05.607Z,97358.88
2022-10-15T22:56:10.170Z,97385.63
2022-10-15T23:01:14.739Z,97391.75
2022-10-15T23:06:19.413Z,97400.66
2022-10-15T23:11:23.459Z,97425.59
2022-10-15T23:16:28.815Z,97421.09
2022-10-15T23:21:34.597Z,97431.69
2022-10-15T23:26:38.314Z,97467.25
2022-10-15T23:31:40.895Z,97482.28
2022-10-15T23:36:45.181Z,97484.97
2022-10-15T23:41:48.381Z,97492.91
2022-10-15T23:46:50.926Z,97501.84
2022-10-15T23:51:54.831Z,97515.09
2022-10-15T23:56:57.403Z,97555.94
